Patricia Ann — WDE2845 — position and weather

sailwx.info

Track history (hours):
 
Tides and Currents Weather Stations Pressure Air Temp Water Temp Dewpoint Dewpoint Depression Visibility Wind Speed Wind Dir Waves Ship Positions

Patricia Ann

Owner: AmNav Maritime Services, Oakland, CA. More information available from US FCC via Universal Licensing System and Coast Guard Vessel Documentation Center.

Last reported at 2017-Jun-29 16:00 UTC. Time now 2017-Jun-29 16:04 UTC.
Position N 37°49' W 122°19'.

Length 24 m; draft 4.9 m.

Type: Tug. MMSI: 367330510.

Date/timePositionNaut miles runAvg speedWind from/ knotsBaromVisibWave heightAir tempDewpointWater temp
2017-Jun-29 16:00N 37°49' W 122°19'0 0.0
2017-Jun-29 15:30N 37°49' W 122°19'0 0.0
2017-Jun-29 15:00N 37°49' W 122°19'1 1.0
2017-Jun-29 14:01N 37°49' W 122°20'0 0.5
2017-Jun-29 13:30N 37°49' W 122°19'1 1.3
2017-Jun-29 13:00N 37°49' W 122°20'1 2.7
2017-Jun-29 12:31N 37°48' W 122°22'1 2.1
2017-Jun-29 12:01N 37°48' W 122°21'0 0.0
2017-Jun-29 11:30N 37°48' W 122°21'0 0.0
2017-Jun-29 11:01N 37°48' W 122°21'0 0.0
2017-Jun-29 10:31N 37°48' W 122°21'0 0.0
2017-Jun-29 10:00N 37°48' W 122°21'0 0.0
2017-Jun-29 09:31N 37°48' W 122°21'1 1.8
2017-Jun-29 09:01N 37°49' W 122°19'1 1.7
2017-Jun-29 08:30N 37°49' W 122°19'0 0.0
2017-Jun-29 08:00N 37°49' W 122°19'0 0.0
2017-Jun-29 07:31N 37°49' W 122°19'0 0.0
2017-Jun-29 07:01N 37°49' W 122°19'0 0.0
2017-Jun-29 06:31N 37°49' W 122°19'0 0.0
2017-Jun-29 06:00N 37°49' W 122°19'0 0.0
2017-Jun-29 05:31N 37°49' W 122°19'0 0.0
2017-Jun-29 05:01N 37°49' W 122°19'0 0.0
2017-Jun-29 04:31N 37°49' W 122°19'0 0.0
2017-Jun-29 04:01N 37°49' W 122°19'0 0.0
2017-Jun-29 03:31N 37°49' W 122°19'0 0.0
2017-Jun-29 03:01N 37°49' W 122°19'0 0.0
2017-Jun-29 02:30N 37°49' W 122°19'0 0.0
2017-Jun-29 02:01N 37°49' W 122°19'0 0.0
2017-Jun-29 01:30N 37°49' W 122°19'2 3.2
2017-Jun-29 01:01N 37°48' W 122°20'0 0.8
2017-Jun-29 00:30N 37°48' W 122°19'0 0.1
2017-Jun-29 00:00N 37°48' W 122°19'0 0.0
2017-Jun-28 23:31N 37°48' W 122°19'0 0.1
2017-Jun-28 23:00N 37°48' W 122°19'0 0.3
2017-Jun-28 22:30N 37°48' W 122°19'1 2.2
2017-Jun-28 22:00N 37°49' W 122°20'1 3.0
2017-Jun-28 21:31N 37°49' W 122°19'0 0.0
2017-Jun-28 21:00N 37°49' W 122°19'0 0.0
2017-Jun-28 20:30N 37°49' W 122°19'0 0.0
2017-Jun-28 20:01N 37°49' W 122°19'0 0.0
2017-Jun-28 19:30N 37°49' W 122°19'0 0.0
2017-Jun-28 19:00N 37°49' W 122°19'0 0.0
2017-Jun-28 18:31N 37°49' W 122°19'0 0.0
2017-Jun-28 18:00N 37°49' W 122°19'0 0.0
2017-Jun-28 17:31N 37°49' W 122°19'0 0.0
2017-Jun-28 17:00N 37°49' W 122°19'0 0.0
2017-Jun-28 16:30N 37°49' W 122°19'0 0.0
2017-Jun-28 16:00N 37°49' W 122°19'0 0.0
2017-Jun-28 15:30N 37°49' W 122°19'0 0.0
2017-Jun-28 15:00N 37°49' W 122°19'0 0.0
2017-Jun-28 14:01N 37°49' W 122°19'2 3.4
2017-Jun-28 13:31N 37°48' W 122°19'0 1.0
2017-Jun-28 13:01N 37°48' W 122°18'0 1.0
2017-Jun-28 12:31N 37°48' W 122°19'1 1.2
2017-Jun-28 12:01N 37°48' W 122°19'1 1.3
2017-Jun-28 11:30N 37°48' W 122°19'1 2.0
2017-Jun-28 11:00N 37°48' W 122°17'2 3.3
2017-Jun-28 10:30N 37°48' W 122°19'2 4.0
2017-Jun-28 10:01N 37°48' W 122°22'2 3.3
2017-Jun-28 09:31N 37°49' W 122°20'0 0.3
2017-Jun-28 09:00N 37°49' W 122°20'1 2.1
2017-Jun-28 08:31N 37°49' W 122°19'0 0.0
2017-Jun-28 08:01N 37°49' W 122°19'0 0.0
2017-Jun-28 07:30N 37°49' W 122°19'0 0.0
2017-Jun-28 07:01N 37°49' W 122°19'0 0.0
2017-Jun-28 06:31N 37°49' W 122°19'0 0.0
2017-Jun-28 06:01N 37°49' W 122°19'0 0.0
2017-Jun-28 05:31N 37°49' W 122°19'0 0.0
2017-Jun-28 05:00N 37°49' W 122°19'0 0.0
2017-Jun-28 04:30N 37°49' W 122°19'0 0.0
2017-Jun-28 04:00N 37°49' W 122°19'0 0.0
2017-Jun-28 03:30N 37°49' W 122°19'2 3.3
2017-Jun-28 03:01N 37°48' W 122°19'0 1.0
2017-Jun-28 02:31N 37°48' W 122°19'0 0.2
2017-Jun-28 02:01N 37°48' W 122°19'0 0.0
2017-Jun-28 01:31N 37°48' W 122°19'1 3.0
2017-Jun-28 01:01N 37°49' W 122°19'0 0.2
2017-Jun-28 00:30N 37°49' W 122°19'0 0.0
2017-Jun-28 00:01N 37°49' W 122°19'0 0.0
2017-Jun-27 23:31N 37°49' W 122°19'0 0.0
2017-Jun-27 23:01N 37°49' W 122°19'0 0.0
2017-Jun-27 22:31N 37°49' W 122°19'0 0.0
2017-Jun-27 22:01N 37°49' W 122°19'0 0.0
2017-Jun-27 21:31N 37°49' W 122°19'0 0.0
2017-Jun-27 21:01N 37°49' W 122°19'0 0.0
2017-Jun-27 20:31N 37°49' W 122°19'0 0.0
2017-Jun-27 20:01N 37°49' W 122°19'0 0.0
2017-Jun-27 19:30N 37°49' W 122°19'0 0.0
2017-Jun-27 19:01N 37°49' W 122°19'0 0.0
2017-Jun-27 18:30N 37°49' W 122°19'0 0.0
2017-Jun-27 18:01N 37°49' W 122°19'0 0.0
2017-Jun-27 17:30N 37°49' W 122°19'0 0.0
2017-Jun-27 17:01N 37°49' W 122°19'0 0.0
2017-Jun-27 16:31N 37°49' W 122°19'0 0.0
2017-Jun-27 16:00N 37°49' W 122°19'0 0.0
2017-Jun-27 15:31N 37°49' W 122°19'0 0.0
2017-Jun-27 15:01N 37°49' W 122°19'0 0.0
2017-Jun-27 14:01N 37°49' W 122°19'0 0.0
2017-Jun-27 13:31N 37°49' W 122°19'0 0.0
2017-Jun-27 13:01N 37°49' W 122°19'0 0.0
2017-Jun-27 12:30N 37°49' W 122°19'0 0.0
2017-Jun-27 12:00N 37°49' W 122°19'0 0.0
2017-Jun-27 11:31N 37°49' W 122°19'2 3.2
2017-Jun-27 11:01N 37°48' W 122°19'1 2.7
2017-Jun-27 10:31N 37°48' W 122°18'1 1.9
2017-Jun-27 10:01N 37°48' W 122°19'1 1.5
2017-Jun-27 09:31N 37°48' W 122°18'0 0.1
2017-Jun-27 09:01N 37°48' W 122°18'0 0.0
2017-Jun-27 08:31N 37°48' W 122°18'0 0.1
2017-Jun-27 08:01N 37°48' W 122°18'1 1.2
2017-Jun-27 07:31N 37°48' W 122°19'2 3.5
2017-Jun-27 07:00N 37°49' W 122°19'0 0.0
2017-Jun-27 06:30N 37°49' W 122°19'0 0.0
2017-Jun-27 06:01N 37°49' W 122°19'0 0.0
2017-Jun-27 05:31N 37°49' W 122°19'0 0.0
2017-Jun-27 05:01N 37°49' W 122°19'0 0.0
2017-Jun-27 04:31N 37°49' W 122°19'0 0.0
2017-Jun-27 04:00N 37°49' W 122°19'0 0.0
2017-Jun-27 03:31N 37°49' W 122°19'0 0.0
2017-Jun-27 03:01N 37°49' W 122°19'0 0.0
2017-Jun-27 02:30N 37°49' W 122°19'0 0.0
2017-Jun-27 02:01N 37°49' W 122°19'0 0.0
2017-Jun-27 01:31N 37°49' W 122°19'0 0.0
2017-Jun-27 01:00N 37°49' W 122°19'0 0.0
2017-Jun-27 00:31N 37°49' W 122°19'2 3.3
2017-Jun-27 00:01N 37°48' W 122°19'0 0.7
2017-Jun-26 23:31N 37°48' W 122°19'2 4.3
2017-Jun-26 23:01N 37°48' W 122°22'1 2.7
2017-Jun-26 22:31N 37°49' W 122°20'0 0.3
2017-Jun-26 22:01N 37°49' W 122°20'0 0.5
2017-Jun-26 21:30N 37°48' W 122°21'0 0.0
2017-Jun-26 21:01N 37°48' W 122°21'0 0.0
2017-Jun-26 20:31N 37°48' W 122°21'0 0.0
2017-Jun-26 20:00N 37°48' W 122°21'0 0.0
2017-Jun-26 19:31N 37°48' W 122°21'0 0.0
2017-Jun-26 19:01N 37°48' W 122°21'0 0.0
2017-Jun-26 18:30N 37°48' W 122°21'0 0.0
2017-Jun-26 18:01N 37°48' W 122°21'0 0.0
2017-Jun-26 17:31N 37°48' W 122°21'2 4.0
2017-Jun-26 17:00N 37°48' W 122°18'0 0.5
2017-Jun-26 16:31N 37°48' W 122°18'0 0.3
2017-Jun-26 16:01N 37°48' W 122°18'3 5.5
2017-Jun-26 15:31N 37°48' W 122°21'1 2.2
2017-Jun-26 15:00N 37°48' W 122°22'0 0.2
2017-Jun-26 14:31N 37°48' W 122°23'3 2.7
2017-Jun-26 13:31N 37°48' W 122°19'2 4.7
2017-Jun-26 13:00N 37°48' W 122°22'2 4.4
2017-Jun-26 12:30N 37°49' W 122°19'0 0.4
2017-Jun-26 12:01N 37°49' W 122°20'3 6.1
2017-Jun-26 11:31N 37°48' W 122°23'4 7.5
2017-Jun-26 11:01N 37°48' W 122°18'0 0.2
2017-Jun-26 10:30N 37°48' W 122°18'1 1.3
2017-Jun-26 10:01N 37°48' W 122°19'1 2.4
2017-Jun-26 09:30N 37°49' W 122°20'1 3.0
2017-Jun-26 09:00N 37°49' W 122°19'0 0.0
2017-Jun-26 08:30N 37°49' W 122°19'0 0.0
2017-Jun-26 08:00N 37°49' W 122°19'0 0.0
2017-Jun-26 07:30N 37°49' W 122°19'0 0.0
2017-Jun-26 07:01N 37°49' W 122°19'0 0.0
2017-Jun-26 06:31N 37°49' W 122°19'0 0.0
2017-Jun-26 06:00N 37°49' W 122°19'0 0.0
2017-Jun-26 05:30N 37°49' W 122°19'0 0.0
2017-Jun-26 05:01N 37°49' W 122°19'0 0.0
2017-Jun-26 04:30N 37°49' W 122°19'0 0.0
2017-Jun-26 04:00N 37°49' W 122°19'0 0.0
2017-Jun-26 03:30N 37°49' W 122°19'0 0.0
2017-Jun-26 03:00N 37°49' W 122°19'0 0.0
2017-Jun-26 02:30N 37°49' W 122°19'2 3.3
2017-Jun-26 02:01N 37°48' W 122°20'2 3.8
2017-Jun-26 01:30N 37°48' W 122°17'1 2.8
2017-Jun-26 01:00N 37°48' W 122°19'1 2.5
2017-Jun-26 00:30N 37°49' W 122°20'1 2.1
2017-Jun-26 00:00N 37°49' W 122°19'0 0.0
2017-Jun-25 23:30N 37°49' W 122°19'0 0.0
2017-Jun-25 23:01N 37°49' W 122°19'0 0.0
2017-Jun-25 22:30N 37°49' W 122°19'0 0.0
2017-Jun-25 22:01N 37°49' W 122°19'0 0.0
2017-Jun-25 21:30N 37°49' W 122°19'0 0.0
2017-Jun-25 21:00N 37°49' W 122°19'0 0.0
2017-Jun-25 20:30N 37°49' W 122°19'0 0.0
2017-Jun-25 20:00N 37°49' W 122°19'0 0.0
2017-Jun-25 19:30N 37°49' W 122°19'0 0.0
2017-Jun-25 19:00N 37°49' W 122°19'0 0.0
2017-Jun-25 18:30N 37°49' W 122°19'0 0.0
2017-Jun-25 18:00N 37°49' W 122°19'0 0.0
2017-Jun-25 17:30N 37°49' W 122°19'0 0.0
2017-Jun-25 17:00N 37°49' W 122°19'0 0.0
2017-Jun-25 16:30N 37°49' W 122°19'0 0.0
2017-Jun-25 16:01N 37°49' W 122°19'0 0.0
2017-Jun-25 15:31N 37°49' W 122°19'2 3.5
2017-Jun-25 15:00N 37°48' W 122°20'1 1.2
2017-Jun-25 14:00N 37°48' W 122°22'3 5.7
2017-Jun-25 13:31N 37°45' W 122°21'0 0.1
2017-Jun-25 13:00N 37°45' W 122°21'0 0.1
2017-Jun-25 12:30N 37°45' W 122°21'2 4.3
2017-Jun-25 12:00N 37°47' W 122°21'1 2.2
2017-Jun-25 11:31N 37°48' W 122°21'0 0.0
2017-Jun-25 11:01N 37°48' W 122°21'0 0.0
2017-Jun-25 10:31N 37°48' W 122°21'0 0.0
2017-Jun-25 10:00N 37°48' W 122°21'0 0.0
2017-Jun-25 09:30N 37°48' W 122°21'0 0.0
2017-Jun-25 09:01N 37°48' W 122°21'0 0.0
2017-Jun-25 08:30N 37°48' W 122°21'0 0.0
2017-Jun-25 08:00N 37°48' W 122°21'0 0.0
2017-Jun-25 07:31N 37°48' W 122°21'0 0.0
2017-Jun-25 07:01N 37°48' W 122°21'0 0.0
2017-Jun-25 06:30N 37°48' W 122°21'3 5.5
2017-Jun-25 06:00N 37°51' W 122°23'5 9.6
2017-Jun-25 05:31N 37°55' W 122°25'0 0.4
2017-Jun-25 05:01N 37°55' W 122°25'0 0.0
2017-Jun-25 04:31N 37°55' W 122°25'0 0.0
2017-Jun-25 04:00N 37°55' W 122°25'1 1.9
2017-Jun-25 03:31N 37°54' W 122°25'2 3.4
2017-Jun-25 03:00N 37°53' W 122°25'1 1.9
2017-Jun-25 02:31N 37°52' W 122°24'2 4.5
2017-Jun-25 02:00N 37°50' W 122°22'2 5.0
2017-Jun-25 01:31N 37°48' W 122°21'2 4.0
2017-Jun-25 01:01N 37°48' W 122°18'0 0.1
2017-Jun-25 00:31N 37°48' W 122°18'3 5.2
2017-Jun-25 00:00N 37°48' W 122°21'1 2.5
2017-Jun-24 23:31N 37°48' W 122°23'2 4.1
2017-Jun-24 23:00N 37°48' W 122°21'0 0.0
2017-Jun-24 22:31N 37°48' W 122°21'0 0.0
2017-Jun-24 22:00N 37°48' W 122°21'1 1.6
2017-Jun-24 21:31N 37°49' W 122°20'0 0.2
2017-Jun-24 21:00N 37°49' W 122°20'1 1.9
2017-Jun-24 20:30N 37°49' W 122°19'0 0.0
2017-Jun-24 20:00N 37°49' W 122°19'0 0.0
2017-Jun-24 19:30N 37°49' W 122°19'0 0.0
2017-Jun-24 19:00N 37°49' W 122°19'0 0.0
2017-Jun-24 18:30N 37°49' W 122°19'0 0.0
2017-Jun-24 18:01N 37°49' W 122°19'0 0.0
2017-Jun-24 17:30N 37°49' W 122°19'1 2.1
2017-Jun-24 17:00N 37°49' W 122°20'1 2.3
2017-Jun-24 16:31N 37°48' W 122°19'0 0.0
2017-Jun-24 16:00N 37°48' W 122°19'0 0.9
2017-Jun-24 15:31N 37°48' W 122°19'1 1.8
2017-Jun-24 15:00N 37°48' W 122°17'3 3.4
2017-Jun-24 14:00N 37°48' W 122°22'3 5.4
2017-Jun-24 13:30N 37°49' W 122°19'0 0.0
2017-Jun-24 13:00N 37°49' W 122°19'0 0.0
2017-Jun-24 12:30N 37°49' W 122°19'0 0.0
2017-Jun-24 12:00N 37°49' W 122°19'0 0.0
2017-Jun-24 11:30N 37°49' W 122°19'0 0.0
2017-Jun-24 11:00N 37°49' W 122°19'0 0.0
2017-Jun-24 10:30N 37°49' W 122°19'0 0.0
2017-Jun-24 10:01N 37°49' W 122°19'0 0.0
2017-Jun-24 09:31N 37°49' W 122°19'0 0.0
2017-Jun-24 09:00N 37°49' W 122°19'0 0.0
2017-Jun-24 08:30N 37°49' W 122°19'0 0.0
2017-Jun-24 08:01N 37°49' W 122°19'0 0.0
2017-Jun-24 07:30N 37°49' W 122°19'0 0.0
2017-Jun-24 07:00N 37°49' W 122°19'0 0.0
2017-Jun-24 06:30N 37°49' W 122°19'0 0.0
2017-Jun-24 06:00N 37°49' W 122°19'0 0.0
2017-Jun-24 05:30N 37°49' W 122°19'0 0.0
2017-Jun-24 05:00N 37°49' W 122°19'0 0.0
2017-Jun-24 04:30N 37°49' W 122°19'0 0.0
2017-Jun-24 04:00N 37°49' W 122°19'0 0.0
2017-Jun-24 03:30N 37°49' W 122°19'0 0.0
2017-Jun-24 03:00N 37°49' W 122°19'0 0.0
2017-Jun-24 02:30N 37°49' W 122°19'0 0.0
2017-Jun-24 02:00N 37°49' W 122°19'0 0.0
2017-Jun-24 01:30N 37°49' W 122°19'2 4.3
2017-Jun-24 01:00N 37°48' W 122°21'510.9
2017-Jun-24 00:30N 37°43' W 122°20'510.9
2017-Jun-24 00:01N 37°37' W 122°18'611.1
2017-Jun-23 23:26N 37°33' W 122°12'3 6.2
2017-Jun-23 23:01N 37°31' W 122°13'0 0.0
2017-Jun-23 22:31N 37°31' W 122°13'0 0.8
2017-Jun-23 22:01N 37°31' W 122°13'2 4.1
2017-Jun-23 21:30N 37°33' W 122°12'3 5.7
2017-Jun-23 21:01N 37°35' W 122°15'1 1.9
2017-Jun-23 20:30N 37°35' W 122°15'510.5
2017-Jun-23 20:01N 37°40' W 122°19'4 8.9
2017-Jun-23 19:31N 37°44' W 122°21'0 0.0
2017-Jun-23 19:00N 37°44' W 122°21'0 0.0
2017-Jun-23 18:30N 37°44' W 122°21'0 0.0
2017-Jun-23 18:01N 37°44' W 122°21'0 0.0
2017-Jun-23 17:31N 37°44' W 122°21'0 0.0
2017-Jun-23 17:00N 37°44' W 122°21'0 0.0
2017-Jun-23 16:30N 37°44' W 122°21'0 0.0
2017-Jun-23 16:00N 37°44' W 122°21'0 0.0
2017-Jun-23 15:31N 37°44' W 122°21'3 5.6
2017-Jun-23 15:01N 37°46' W 122°22'3 6.3
2017-Jun-23 14:30N 37°49' W 122°20'1 1.3
2017-Jun-23 13:30N 37°48' W 122°21'1 1.3
2017-Jun-23 13:01N 37°48' W 122°21'0 0.0
2017-Jun-23 12:30N 37°48' W 122°21'0 0.0
2017-Jun-23 12:00N 37°48' W 122°21'0 0.0
2017-Jun-23 11:30N 37°48' W 122°21'0 0.0
2017-Jun-23 11:01N 37°48' W 122°21'0 0.0
2017-Jun-23 10:30N 37°48' W 122°21'0 0.0
2017-Jun-23 10:01N 37°48' W 122°21'0 0.0
2017-Jun-23 09:30N 37°48' W 122°21'0 0.0
2017-Jun-23 09:01N 37°48' W 122°21'1 2.7
2017-Jun-23 08:31N 37°48' W 122°19'0 0.0
2017-Jun-23 08:01N 37°48' W 122°19'1 1.9
2017-Jun-23 07:31N 37°48' W 122°18'0 0.1
2017-Jun-23 07:01N 37°48' W 122°18'3 5.6
2017-Jun-23 06:30N 37°48' W 122°21'2 4.4
2017-Jun-23 06:00N 37°49' W 122°19'0 0.4
2017-Jun-23 05:30N 37°49' W 122°19'0 0.0
2017-Jun-23 05:00N 37°49' W 122°19'0 0.0
2017-Jun-23 04:30N 37°49' W 122°19'0 0.0
2017-Jun-23 04:01N 37°49' W 122°19'0 0.0
2017-Jun-23 03:30N 37°49' W 122°19'0 0.0
2017-Jun-23 03:00N 37°49' W 122°19'0 0.0
2017-Jun-23 02:30N 37°49' W 122°19'0 0.0
2017-Jun-23 02:00N 37°49' W 122°19'0 0.0
2017-Jun-23 01:30N 37°49' W 122°19'0 0.0
2017-Jun-23 01:00N 37°49' W 122°19'0 0.0
2017-Jun-23 00:30N 37°49' W 122°19'0 0.0
2017-Jun-23 00:00N 37°49' W 122°19'1 1.8
2017-Jun-22 23:30N 37°49' W 122°20'0 0.4
2017-Jun-22 23:00N 37°49' W 122°19'1 1.8
2017-Jun-22 22:30N 37°49' W 122°19'0 0.0
2017-Jun-22 22:00N 37°49' W 122°19'0 0.0
2017-Jun-22 21:30N 37°49' W 122°19'0 0.0
2017-Jun-22 21:00N 37°49' W 122°19'0 0.0
2017-Jun-22 20:30N 37°49' W 122°19'0 0.0
2017-Jun-22 20:00N 37°49' W 122°19'0 0.0
2017-Jun-22 19:30N 37°49' W 122°19'0 0.0
2017-Jun-22 19:00N 37°49' W 122°19'0 0.0
2017-Jun-22 18:30N 37°49' W 122°19'0 0.0
2017-Jun-22 18:00N 37°49' W 122°19'0 0.0
2017-Jun-22 17:30N 37°49' W 122°19'0 0.0
2017-Jun-22 17:00N 37°49' W 122°19'0 0.0
2017-Jun-22 16:30N 37°49' W 122°19'0 0.0
2017-Jun-22 16:00N 37°49' W 122°19'0 0.0
2017-Jun-22 15:30N 37°49' W 122°19'0 0.0
2017-Jun-22 15:00N 37°49' W 122°19'0 0.0
2017-Jun-22 14:30N 37°49' W 122°19'1 1.4
2017-Jun-22 13:30N 37°49' W 122°20'2 3.6
2017-Jun-22 13:00N 37°48' W 122°23'3 6.4
2017-Jun-22 12:30N 37°49' W 122°19'0 0.0
2017-Jun-22 12:01N 37°49' W 122°19'0 0.0
2017-Jun-22 11:30N 37°49' W 122°19'0 0.0
2017-Jun-22 11:00N 37°49' W 122°19'0 0.0
2017-Jun-22 10:30N 37°49' W 122°19'0 0.0
2017-Jun-22 10:01N 37°49' W 122°19'0 0.0
2017-Jun-22 09:30N 37°49' W 122°19'0 0.0
2017-Jun-22 09:00N 37°49' W 122°19'0 0.0
2017-Jun-22 08:30N 37°49' W 122°19'0 0.0
2017-Jun-22 08:01N 37°49' W 122°19'0 0.0
2017-Jun-22 07:30N 37°49' W 122°19'0 0.0
2017-Jun-22 07:00N 37°49' W 122°19'0 0.0
2017-Jun-22 06:30N 37°49' W 122°19'0 0.0
2017-Jun-22 06:00N 37°49' W 122°19'0 0.0
2017-Jun-22 05:31N 37°49' W 122°19'2 3.2
2017-Jun-22 05:00N 37°48' W 122°19'0 0.2
2017-Jun-22 04:30N 37°48' W 122°19'0 0.1
2017-Jun-22 04:00N 37°48' W 122°19'0 0.1
2017-Jun-22 03:30N 37°48' W 122°19'0 0.0
2017-Jun-22 03:00N 37°48' W 122°19'3 6.8
2017-Jun-22 02:30N 37°50' W 122°22'5 9.7
2017-Jun-22 02:00N 37°54' W 122°25'1 1.4
2017-Jun-22 01:18N 37°55' W 122°25'0 0.3
2017-Jun-22 01:00N 37°55' W 122°25'0 0.1
2017-Jun-22 00:30N 37°55' W 122°25'1 2.8
2017-Jun-22 00:00N 37°54' W 122°23'0 0.0
2017-Jun-21 23:30N 37°54' W 122°23'0 0.0
2017-Jun-21 23:00N 37°54' W 122°23'0 0.0
2017-Jun-21 22:30N 37°54' W 122°23'0 0.0
2017-Jun-21 22:00N 37°54' W 122°23'0 0.0
2017-Jun-21 21:30N 37°54' W 122°23'1 1.8
2017-Jun-21 20:41N 37°55' W 122°25'0 2.7
2017-Jun-21 20:30N 37°55' W 122°25'1 1.1
2017-Jun-21 20:00N 37°55' W 122°26'3 6.1
2017-Jun-21 19:30N 37°52' W 122°24'5 9.2
2017-Jun-21 19:00N 37°49' W 122°20'1 2.3
2017-Jun-21 18:30N 37°49' W 122°19'0 0.0
2017-Jun-21 18:00N 37°49' W 122°19'0 0.0
2017-Jun-21 17:30N 37°49' W 122°19'0 0.0
2017-Jun-21 17:00N 37°49' W 122°19'0 0.0
2017-Jun-21 16:30N 37°49' W 122°19'0 0.0
2017-Jun-21 16:00N 37°49' W 122°19'0 0.0
2017-Jun-21 15:30N 37°49' W 122°19'0 0.0
2017-Jun-21 15:00N 37°49' W 122°19'0 0.0
2017-Jun-21 14:30N 37°49' W 122°19'0 0.0
2017-Jun-21 13:30N 37°49' W 122°19'2 3.1
2017-Jun-21 13:00N 37°48' W 122°19'0 0.3
2017-Jun-21 12:31N 37°48' W 122°19'1 2.4
2017-Jun-21 12:01N 37°48' W 122°18'3 5.7
2017-Jun-21 11:30N 37°48' W 122°21'1 2.6
2017-Jun-21 11:00N 37°49' W 122°20'1 1.7
2017-Jun-21 10:30N 37°49' W 122°19'0 0.0
2017-Jun-21 10:00N 37°49' W 122°19'0 0.0
2017-Jun-21 09:30N 37°49' W 122°19'0 0.0
2017-Jun-21 09:00N 37°49' W 122°19'0 0.0
2017-Jun-21 08:30N 37°49' W 122°19'0 0.0
2017-Jun-21 08:00N 37°49' W 122°19'0 0.0
2017-Jun-21 07:30N 37°49' W 122°19'0 0.0
2017-Jun-21 07:01N 37°49' W 122°19'0 0.0
2017-Jun-21 06:30N 37°49' W 122°19'0 0.0
2017-Jun-21 06:00N 37°49' W 122°19'0 0.0
2017-Jun-21 05:30N 37°49' W 122°19'0 0.0
2017-Jun-21 05:00N 37°49' W 122°19'0 0.0
2017-Jun-21 04:31N 37°49' W 122°19'0 0.0
2017-Jun-21 04:00N 37°49' W 122°19'0 0.0
2017-Jun-21 03:30N 37°49' W 122°19'0 0.0
2017-Jun-21 03:00N 37°49' W 122°19'0 0.0
2017-Jun-21 02:30N 37°49' W 122°19'0 0.0
2017-Jun-21 02:00N 37°49' W 122°19'0 0.0
2017-Jun-21 01:30N 37°49' W 122°19'0 0.0
2017-Jun-21 01:00N 37°49' W 122°19'0 0.0
2017-Jun-21 00:30N 37°49' W 122°19'1 1.1
2017-Jun-21 00:00N 37°49' W 122°19'1 1.1
2017-Jun-20 23:30N 37°49' W 122°20'2 3.0
2017-Jun-20 23:00N 37°48' W 122°22'3 5.0
2017-Jun-20 22:30N 37°49' W 122°19'0 0.0
2017-Jun-20 22:00N 37°49' W 122°19'0 0.0
2017-Jun-20 21:30N 37°49' W 122°19'3 5.3
2017-Jun-20 21:01N 37°48' W 122°22'2 4.2
2017-Jun-20 20:30N 37°50' W 122°24'3 6.0
2017-Jun-20 20:00N 37°52' W 122°25'610.7
2017-Jun-20 19:28N 37°58' W 122°27'8 9.8
2017-Jun-20 18:42N 38°03' W 122°19'3 0.6
2017-Jun-20 14:32N 38°02' W 122°22'610.5
2017-Jun-20 14:00N 37°57' W 122°26'510.9
2017-Jun-20 13:30N 37°52' W 122°24'4 8.4
2017-Jun-20 13:00N 37°49' W 122°20'1 2.9
2017-Jun-20 12:30N 37°49' W 122°19'0 0.0
2017-Jun-20 12:00N 37°49' W 122°19'0 0.0
2017-Jun-20 11:30N 37°49' W 122°19'0 0.0
2017-Jun-20 11:00N 37°49' W 122°19'0 0.0
2017-Jun-20 10:30N 37°49' W 122°19'0 0.0
2017-Jun-20 10:00N 37°49' W 122°19'0 0.0
2017-Jun-20 09:30N 37°49' W 122°19'0 0.0
2017-Jun-20 09:00N 37°49' W 122°19'0 0.0
2017-Jun-20 08:30N 37°49' W 122°19'0 0.0
2017-Jun-20 08:00N 37°49' W 122°19'0 0.0
2017-Jun-20 07:30N 37°49' W 122°19'0 0.0
2017-Jun-20 07:00N 37°49' W 122°19'0 0.0
2017-Jun-20 06:30N 37°49' W 122°19'0 0.0
2017-Jun-20 06:00N 37°49' W 122°19'0 0.0
2017-Jun-20 05:30N 37°49' W 122°19'0 0.0
2017-Jun-20 05:00N 37°49' W 122°19'0 0.0
2017-Jun-20 04:30N 37°49' W 122°19'0 0.0
2017-Jun-20 04:00N 37°49' W 122°19'0 0.0
2017-Jun-20 03:30N 37°49' W 122°19'0 0.0
2017-Jun-20 03:00N 37°49' W 122°19'0 0.0
2017-Jun-20 02:30N 37°49' W 122°19'0 0.0
2017-Jun-20 02:00N 37°49' W 122°19'0 0.0
2017-Jun-20 01:30N 37°49' W 122°19'0 0.0
2017-Jun-20 01:00N 37°49' W 122°19'3 6.2
2017-Jun-20 00:31N 37°48' W 122°22'3 6.7
2017-Jun-20 00:01N 37°48' W 122°18'0 0.9
2017-Jun-19 23:30N 37°48' W 122°18'0 0.0
2017-Jun-19 23:01N 37°48' W 122°18'2 3.6
2017-Jun-19 22:30N 37°49' W 122°19'0 0.5
2017-Jun-19 22:00N 37°49' W 122°19'0 0.0
2017-Jun-19 21:30N 37°49' W 122°19'0 0.0
2017-Jun-19 21:00N 37°49' W 122°19'0 0.0
2017-Jun-19 20:30N 37°49' W 122°19'0 0.0
2017-Jun-19 20:00N 37°49' W 122°19'0 0.0
2017-Jun-19 19:30N 37°49' W 122°19'0 0.0
2017-Jun-19 19:00N 37°49' W 122°19'0 0.0
2017-Jun-19 18:30N 37°49' W 122°19'0 0.0
2017-Jun-19 18:00N 37°49' W 122°19'0 0.0
2017-Jun-19 17:30N 37°49' W 122°19'0 0.0
2017-Jun-19 17:00N 37°49' W 122°19'0 0.0
2017-Jun-19 16:30N 37°49' W 122°19'2 3.3
2017-Jun-19 16:01N 37°48' W 122°20'  
Track history (hours):
 
Tides and Currents Weather Stations Pressure Air Temp Water Temp Dewpoint Dewpoint Depression Visibility Wind Speed Wind Dir Waves Ship Positions

Patricia Ann

Owner: AmNav Maritime Services, Oakland, CA. More information available from US FCC via Universal Licensing System and Coast Guard Vessel Documentation Center.

Last reported at 2017-Jun-29 16:00 UTC. Time now 2017-Jun-29 16:04 UTC.
Position N 37°49' W 122°19'.

Length 24 m; draft 4.9 m.

Type: Tug. MMSI: 367330510.

Date/timePositionNaut miles runAvg speedWind from/ knotsBaromVisibWave heightAir tempDewpointWater temp
2017-Jun-29 16:00N 37°49' W 122°19'0 0.0
2017-Jun-29 15:30N 37°49' W 122°19'0 0.0
2017-Jun-29 15:00N 37°49' W 122°19'1 1.0
2017-Jun-29 14:01N 37°49' W 122°20'0 0.5
2017-Jun-29 13:30N 37°49' W 122°19'1 1.3
2017-Jun-29 13:00N 37°49' W 122°20'1 2.7
2017-Jun-29 12:31N 37°48' W 122°22'1 2.1
2017-Jun-29 12:01N 37°48' W 122°21'0 0.0
2017-Jun-29 11:30N 37°48' W 122°21'0 0.0
2017-Jun-29 11:01N 37°48' W 122°21'0 0.0
2017-Jun-29 10:31N 37°48' W 122°21'0 0.0
2017-Jun-29 10:00N 37°48' W 122°21'0 0.0
2017-Jun-29 09:31N 37°48' W 122°21'1 1.8
2017-Jun-29 09:01N 37°49' W 122°19'1 1.7
2017-Jun-29 08:30N 37°49' W 122°19'0 0.0
2017-Jun-29 08:00N 37°49' W 122°19'0 0.0
2017-Jun-29 07:31N 37°49' W 122°19'0 0.0
2017-Jun-29 07:01N 37°49' W 122°19'0 0.0
2017-Jun-29 06:31N 37°49' W 122°19'0 0.0
2017-Jun-29 06:00N 37°49' W 122°19'0 0.0
2017-Jun-29 05:31N 37°49' W 122°19'0 0.0
2017-Jun-29 05:01N 37°49' W 122°19'0 0.0
2017-Jun-29 04:31N 37°49' W 122°19'0 0.0
2017-Jun-29 04:01N 37°49' W 122°19'0 0.0
2017-Jun-29 03:31N 37°49' W 122°19'0 0.0
2017-Jun-29 03:01N 37°49' W 122°19'0 0.0
2017-Jun-29 02:30N 37°49' W 122°19'0 0.0
2017-Jun-29 02:01N 37°49' W 122°19'0 0.0
2017-Jun-29 01:30N 37°49' W 122°19'2 3.2
2017-Jun-29 01:01N 37°48' W 122°20'0 0.8
2017-Jun-29 00:30N 37°48' W 122°19'0 0.1
2017-Jun-29 00:00N 37°48' W 122°19'0 0.0
2017-Jun-28 23:31N 37°48' W 122°19'0 0.1
2017-Jun-28 23:00N 37°48' W 122°19'0 0.3
2017-Jun-28 22:30N 37°48' W 122°19'1 2.2
2017-Jun-28 22:00N 37°49' W 122°20'1 3.0
2017-Jun-28 21:31N 37°49' W 122°19'0 0.0
2017-Jun-28 21:00N 37°49' W 122°19'0 0.0
2017-Jun-28 20:30N 37°49' W 122°19'0 0.0
2017-Jun-28 20:01N 37°49' W 122°19'0 0.0
2017-Jun-28 19:30N 37°49' W 122°19'0 0.0
2017-Jun-28 19:00N 37°49' W 122°19'0 0.0
2017-Jun-28 18:31N 37°49' W 122°19'0 0.0
2017-Jun-28 18:00N 37°49' W 122°19'0 0.0
2017-Jun-28 17:31N 37°49' W 122°19'0 0.0
2017-Jun-28 17:00N 37°49' W 122°19'0 0.0
2017-Jun-28 16:30N 37°49' W 122°19'0 0.0
2017-Jun-28 16:00N 37°49' W 122°19'0 0.0
2017-Jun-28 15:30N 37°49' W 122°19'0 0.0
2017-Jun-28 15:00N 37°49' W 122°19'0 0.0
2017-Jun-28 14:01N 37°49' W 122°19'2 3.4
2017-Jun-28 13:31N 37°48' W 122°19'0 1.0
2017-Jun-28 13:01N 37°48' W 122°18'0 1.0
2017-Jun-28 12:31N 37°48' W 122°19'1 1.2
2017-Jun-28 12:01N 37°48' W 122°19'1 1.3
2017-Jun-28 11:30N 37°48' W 122°19'1 2.0
2017-Jun-28 11:00N 37°48' W 122°17'2 3.3
2017-Jun-28 10:30N 37°48' W 122°19'2 4.0
2017-Jun-28 10:01N 37°48' W 122°22'2 3.3
2017-Jun-28 09:31N 37°49' W 122°20'0 0.3
2017-Jun-28 09:00N 37°49' W 122°20'1 2.1
2017-Jun-28 08:31N 37°49' W 122°19'0 0.0
2017-Jun-28 08:01N 37°49' W 122°19'0 0.0
2017-Jun-28 07:30N 37°49' W 122°19'0 0.0
2017-Jun-28 07:01N 37°49' W 122°19'0 0.0
2017-Jun-28 06:31N 37°49' W 122°19'0 0.0
2017-Jun-28 06:01N 37°49' W 122°19'0 0.0
2017-Jun-28 05:31N 37°49' W 122°19'0 0.0
2017-Jun-28 05:00N 37°49' W 122°19'0 0.0
2017-Jun-28 04:30N 37°49' W 122°19'0 0.0
2017-Jun-28 04:00N 37°49' W 122°19'0 0.0
2017-Jun-28 03:30N 37°49' W 122°19'2 3.3
2017-Jun-28 03:01N 37°48' W 122°19'0 1.0
2017-Jun-28 02:31N 37°48' W 122°19'0 0.2
2017-Jun-28 02:01N 37°48' W 122°19'0 0.0
2017-Jun-28 01:31N 37°48' W 122°19'1 3.0
2017-Jun-28 01:01N 37°49' W 122°19'0 0.2
2017-Jun-28 00:30N 37°49' W 122°19'0 0.0
2017-Jun-28 00:01N 37°49' W 122°19'0 0.0
2017-Jun-27 23:31N 37°49' W 122°19'0 0.0
2017-Jun-27 23:01N 37°49' W 122°19'0 0.0
2017-Jun-27 22:31N 37°49' W 122°19'0 0.0
2017-Jun-27 22:01N 37°49' W 122°19'0 0.0
2017-Jun-27 21:31N 37°49' W 122°19'0 0.0
2017-Jun-27 21:01N 37°49' W 122°19'0 0.0
2017-Jun-27 20:31N 37°49' W 122°19'0 0.0
2017-Jun-27 20:01N 37°49' W 122°19'0 0.0
2017-Jun-27 19:30N 37°49' W 122°19'0 0.0
2017-Jun-27 19:01N 37°49' W 122°19'0 0.0
2017-Jun-27 18:30N 37°49' W 122°19'0 0.0
2017-Jun-27 18:01N 37°49' W 122°19'0 0.0
2017-Jun-27 17:30N 37°49' W 122°19'0 0.0
2017-Jun-27 17:01N 37°49' W 122°19'0 0.0
2017-Jun-27 16:31N 37°49' W 122°19'0 0.0
2017-Jun-27 16:00N 37°49' W 122°19'0 0.0
2017-Jun-27 15:31N 37°49' W 122°19'0 0.0
2017-Jun-27 15:01N 37°49' W 122°19'0 0.0
2017-Jun-27 14:01N 37°49' W 122°19'0 0.0
2017-Jun-27 13:31N 37°49' W 122°19'0 0.0
2017-Jun-27 13:01N 37°49' W 122°19'0 0.0
2017-Jun-27 12:30N 37°49' W 122°19'0 0.0
2017-Jun-27 12:00N 37°49' W 122°19'0 0.0
2017-Jun-27 11:31N 37°49' W 122°19'2 3.2
2017-Jun-27 11:01N 37°48' W 122°19'1 2.7
2017-Jun-27 10:31N 37°48' W 122°18'1 1.9
2017-Jun-27 10:01N 37°48' W 122°19'1 1.5
2017-Jun-27 09:31N 37°48' W 122°18'0 0.1
2017-Jun-27 09:01N 37°48' W 122°18'0 0.0
2017-Jun-27 08:31N 37°48' W 122°18'0 0.1
2017-Jun-27 08:01N 37°48' W 122°18'1 1.2
2017-Jun-27 07:31N 37°48' W 122°19'2 3.5
2017-Jun-27 07:00N 37°49' W 122°19'0 0.0
2017-Jun-27 06:30N 37°49' W 122°19'0 0.0
2017-Jun-27 06:01N 37°49' W 122°19'0 0.0
2017-Jun-27 05:31N 37°49' W 122°19'0 0.0
2017-Jun-27 05:01N 37°49' W 122°19'0 0.0
2017-Jun-27 04:31N 37°49' W 122°19'0 0.0
2017-Jun-27 04:00N 37°49' W 122°19'0 0.0
2017-Jun-27 03:31N 37°49' W 122°19'0 0.0
2017-Jun-27 03:01N 37°49' W 122°19'0 0.0
2017-Jun-27 02:30N 37°49' W 122°19'0 0.0
2017-Jun-27 02:01N 37°49' W 122°19'0 0.0
2017-Jun-27 01:31N 37°49' W 122°19'0 0.0
2017-Jun-27 01:00N 37°49' W 122°19'0 0.0
2017-Jun-27 00:31N 37°49' W 122°19'2 3.3
2017-Jun-27 00:01N 37°48' W 122°19'0 0.7
2017-Jun-26 23:31N 37°48' W 122°19'2 4.3
2017-Jun-26 23:01N 37°48' W 122°22'1 2.7
2017-Jun-26 22:31N 37°49' W 122°20'0 0.3
2017-Jun-26 22:01N 37°49' W 122°20'0 0.5
2017-Jun-26 21:30N 37°48' W 122°21'0 0.0
2017-Jun-26 21:01N 37°48' W 122°21'0 0.0
2017-Jun-26 20:31N 37°48' W 122°21'0 0.0
2017-Jun-26 20:00N 37°48' W 122°21'0 0.0
2017-Jun-26 19:31N 37°48' W 122°21'0 0.0
2017-Jun-26 19:01N 37°48' W 122°21'0 0.0
2017-Jun-26 18:30N 37°48' W 122°21'0 0.0
2017-Jun-26 18:01N 37°48' W 122°21'0 0.0
2017-Jun-26 17:31N 37°48' W 122°21'2 4.0
2017-Jun-26 17:00N 37°48' W 122°18'0 0.5
2017-Jun-26 16:31N 37°48' W 122°18'0 0.3
2017-Jun-26 16:01N 37°48' W 122°18'3 5.5
2017-Jun-26 15:31N 37°48' W 122°21'1 2.2
2017-Jun-26 15:00N 37°48' W 122°22'0 0.2
2017-Jun-26 14:31N 37°48' W 122°23'3 2.7
2017-Jun-26 13:31N 37°48' W 122°19'2 4.7
2017-Jun-26 13:00N 37°48' W 122°22'2 4.4
2017-Jun-26 12:30N 37°49' W 122°19'0 0.4
2017-Jun-26 12:01N 37°49' W 122°20'3 6.1
2017-Jun-26 11:31N 37°48' W 122°23'4 7.5
2017-Jun-26 11:01N 37°48' W 122°18'0 0.2
2017-Jun-26 10:30N 37°48' W 122°18'1 1.3
2017-Jun-26 10:01N 37°48' W 122°19'1 2.4
2017-Jun-26 09:30N 37°49' W 122°20'1 3.0
2017-Jun-26 09:00N 37°49' W 122°19'0 0.0
2017-Jun-26 08:30N 37°49' W 122°19'0 0.0
2017-Jun-26 08:00N 37°49' W 122°19'0 0.0
2017-Jun-26 07:30N 37°49' W 122°19'0 0.0
2017-Jun-26 07:01N 37°49' W 122°19'0 0.0
2017-Jun-26 06:31N 37°49' W 122°19'0 0.0
2017-Jun-26 06:00N 37°49' W 122°19'0 0.0
2017-Jun-26 05:30N 37°49' W 122°19'0 0.0
2017-Jun-26 05:01N 37°49' W 122°19'0 0.0
2017-Jun-26 04:30N 37°49' W 122°19'0 0.0
2017-Jun-26 04:00N 37°49' W 122°19'0 0.0
2017-Jun-26 03:30N 37°49' W 122°19'0 0.0
2017-Jun-26 03:00N 37°49' W 122°19'0 0.0
2017-Jun-26 02:30N 37°49' W 122°19'2 3.3
2017-Jun-26 02:01N 37°48' W 122°20'2 3.8
2017-Jun-26 01:30N 37°48' W 122°17'1 2.8
2017-Jun-26 01:00N 37°48' W 122°19'1 2.5
2017-Jun-26 00:30N 37°49' W 122°20'1 2.1
2017-Jun-26 00:00N 37°49' W 122°19'0 0.0
2017-Jun-25 23:30N 37°49' W 122°19'0 0.0
2017-Jun-25 23:01N 37°49' W 122°19'0 0.0
2017-Jun-25 22:30N 37°49' W 122°19'0 0.0
2017-Jun-25 22:01N 37°49' W 122°19'0 0.0
2017-Jun-25 21:30N 37°49' W 122°19'0 0.0
2017-Jun-25 21:00N 37°49' W 122°19'0 0.0
2017-Jun-25 20:30N 37°49' W 122°19'0 0.0
2017-Jun-25 20:00N 37°49' W 122°19'0 0.0
2017-Jun-25 19:30N 37°49' W 122°19'0 0.0
2017-Jun-25 19:00N 37°49' W 122°19'0 0.0
2017-Jun-25 18:30N 37°49' W 122°19'0 0.0
2017-Jun-25 18:00N 37°49' W 122°19'0 0.0
2017-Jun-25 17:30N 37°49' W 122°19'0 0.0
2017-Jun-25 17:00N 37°49' W 122°19'0 0.0
2017-Jun-25 16:30N 37°49' W 122°19'0 0.0
2017-Jun-25 16:01N 37°49' W 122°19'0 0.0
2017-Jun-25 15:31N 37°49' W 122°19'2 3.5
2017-Jun-25 15:00N 37°48' W 122°20'1 1.2
2017-Jun-25 14:00N 37°48' W 122°22'3 5.7
2017-Jun-25 13:31N 37°45' W 122°21'0 0.1
2017-Jun-25 13:00N 37°45' W 122°21'0 0.1
2017-Jun-25 12:30N 37°45' W 122°21'2 4.3
2017-Jun-25 12:00N 37°47' W 122°21'1 2.2
2017-Jun-25 11:31N 37°48' W 122°21'0 0.0
2017-Jun-25 11:01N 37°48' W 122°21'0 0.0
2017-Jun-25 10:31N 37°48' W 122°21'0 0.0
2017-Jun-25 10:00N 37°48' W 122°21'0 0.0
2017-Jun-25 09:30N 37°48' W 122°21'0 0.0
2017-Jun-25 09:01N 37°48' W 122°21'0 0.0
2017-Jun-25 08:30N 37°48' W 122°21'0 0.0
2017-Jun-25 08:00N 37°48' W 122°21'0 0.0
2017-Jun-25 07:31N 37°48' W 122°21'0 0.0
2017-Jun-25 07:01N 37°48' W 122°21'0 0.0
2017-Jun-25 06:30N 37°48' W 122°21'3 5.5
2017-Jun-25 06:00N 37°51' W 122°23'5 9.6
2017-Jun-25 05:31N 37°55' W 122°25'0 0.4
2017-Jun-25 05:01N 37°55' W 122°25'0 0.0
2017-Jun-25 04:31N 37°55' W 122°25'0 0.0
2017-Jun-25 04:00N 37°55' W 122°25'1 1.9
2017-Jun-25 03:31N 37°54' W 122°25'2 3.4
2017-Jun-25 03:00N 37°53' W 122°25'1 1.9
2017-Jun-25 02:31N 37°52' W 122°24'2 4.5
2017-Jun-25 02:00N 37°50' W 122°22'2 5.0
2017-Jun-25 01:31N 37°48' W 122°21'2 4.0
2017-Jun-25 01:01N 37°48' W 122°18'0 0.1
2017-Jun-25 00:31N 37°48' W 122°18'3 5.2
2017-Jun-25 00:00N 37°48' W 122°21'1 2.5
2017-Jun-24 23:31N 37°48' W 122°23'2 4.1
2017-Jun-24 23:00N 37°48' W 122°21'0 0.0
2017-Jun-24 22:31N 37°48' W 122°21'0 0.0
2017-Jun-24 22:00N 37°48' W 122°21'1 1.6
2017-Jun-24 21:31N 37°49' W 122°20'0 0.2
2017-Jun-24 21:00N 37°49' W 122°20'1 1.9
2017-Jun-24 20:30N 37°49' W 122°19'0 0.0
2017-Jun-24 20:00N 37°49' W 122°19'0 0.0
2017-Jun-24 19:30N 37°49' W 122°19'0 0.0
2017-Jun-24 19:00N 37°49' W 122°19'0 0.0
2017-Jun-24 18:30N 37°49' W 122°19'0 0.0
2017-Jun-24 18:01N 37°49' W 122°19'0 0.0
2017-Jun-24 17:30N 37°49' W 122°19'1 2.1
2017-Jun-24 17:00N 37°49' W 122°20'1 2.3
2017-Jun-24 16:31N 37°48' W 122°19'0 0.0
2017-Jun-24 16:00N 37°48' W 122°19'0 0.9
2017-Jun-24 15:31N 37°48' W 122°19'1 1.8
2017-Jun-24 15:00N 37°48' W 122°17'3 3.4
2017-Jun-24 14:00N 37°48' W 122°22'3 5.4
2017-Jun-24 13:30N 37°49' W 122°19'0 0.0
2017-Jun-24 13:00N 37°49' W 122°19'0 0.0
2017-Jun-24 12:30N 37°49' W 122°19'0 0.0
2017-Jun-24 12:00N 37°49' W 122°19'0 0.0
2017-Jun-24 11:30N 37°49' W 122°19'0 0.0
2017-Jun-24 11:00N 37°49' W 122°19'0 0.0
2017-Jun-24 10:30N 37°49' W 122°19'0 0.0
2017-Jun-24 10:01N 37°49' W 122°19'0 0.0
2017-Jun-24 09:31N 37°49' W 122°19'0 0.0
2017-Jun-24 09:00N 37°49' W 122°19'0 0.0
2017-Jun-24 08:30N 37°49' W 122°19'0 0.0
2017-Jun-24 08:01N 37°49' W 122°19'0 0.0
2017-Jun-24 07:30N 37°49' W 122°19'0 0.0
2017-Jun-24 07:00N 37°49' W 122°19'0 0.0
2017-Jun-24 06:30N 37°49' W 122°19'0 0.0
2017-Jun-24 06:00N 37°49' W 122°19'0 0.0
2017-Jun-24 05:30N 37°49' W 122°19'0 0.0
2017-Jun-24 05:00N 37°49' W 122°19'0 0.0
2017-Jun-24 04:30N 37°49' W 122°19'0 0.0
2017-Jun-24 04:00N 37°49' W 122°19'0 0.0
2017-Jun-24 03:30N 37°49' W 122°19'0 0.0
2017-Jun-24 03:00N 37°49' W 122°19'0 0.0
2017-Jun-24 02:30N 37°49' W 122°19'0 0.0
2017-Jun-24 02:00N 37°49' W 122°19'0 0.0
2017-Jun-24 01:30N 37°49' W 122°19'2 4.3
2017-Jun-24 01:00N 37°48' W 122°21'510.9
2017-Jun-24 00:30N 37°43' W 122°20'510.9
2017-Jun-24 00:01N 37°37' W 122°18'611.1
2017-Jun-23 23:26N 37°33' W 122°12'3 6.2
2017-Jun-23 23:01N 37°31' W 122°13'0 0.0
2017-Jun-23 22:31N 37°31' W 122°13'0 0.8
2017-Jun-23 22:01N 37°31' W 122°13'2 4.1
2017-Jun-23 21:30N 37°33' W 122°12'3 5.7
2017-Jun-23 21:01N 37°35' W 122°15'1 1.9
2017-Jun-23 20:30N 37°35' W 122°15'510.5
2017-Jun-23 20:01N 37°40' W 122°19'4 8.9
2017-Jun-23 19:31N 37°44' W 122°21'0 0.0
2017-Jun-23 19:00N 37°44' W 122°21'0 0.0
2017-Jun-23 18:30N 37°44' W 122°21'0 0.0
2017-Jun-23 18:01N 37°44' W 122°21'0 0.0
2017-Jun-23 17:31N 37°44' W 122°21'0 0.0
2017-Jun-23 17:00N 37°44' W 122°21'0 0.0
2017-Jun-23 16:30N 37°44' W 122°21'0 0.0
2017-Jun-23 16:00N 37°44' W 122°21'0 0.0
2017-Jun-23 15:31N 37°44' W 122°21'3 5.6
2017-Jun-23 15:01N 37°46' W 122°22'3 6.3
2017-Jun-23 14:30N 37°49' W 122°20'1 1.3
2017-Jun-23 13:30N 37°48' W 122°21'1 1.3
2017-Jun-23 13:01N 37°48' W 122°21'0 0.0
2017-Jun-23 12:30N 37°48' W 122°21'0 0.0
2017-Jun-23 12:00N 37°48' W 122°21'0 0.0
2017-Jun-23 11:30N 37°48' W 122°21'0 0.0
2017-Jun-23 11:01N 37°48' W 122°21'0 0.0
2017-Jun-23 10:30N 37°48' W 122°21'0 0.0
2017-Jun-23 10:01N 37°48' W 122°21'0 0.0
2017-Jun-23 09:30N 37°48' W 122°21'0 0.0
2017-Jun-23 09:01N 37°48' W 122°21'1 2.7
2017-Jun-23 08:31N 37°48' W 122°19'0 0.0
2017-Jun-23 08:01N 37°48' W 122°19'1 1.9
2017-Jun-23 07:31N 37°48' W 122°18'0 0.1
2017-Jun-23 07:01N 37°48' W 122°18'3 5.6
2017-Jun-23 06:30N 37°48' W 122°21'2 4.4
2017-Jun-23 06:00N 37°49' W 122°19'0 0.4
2017-Jun-23 05:30N 37°49' W 122°19'0 0.0
2017-Jun-23 05:00N 37°49' W 122°19'0 0.0
2017-Jun-23 04:30N 37°49' W 122°19'0 0.0
2017-Jun-23 04:01N 37°49' W 122°19'0 0.0
2017-Jun-23 03:30N 37°49' W 122°19'0 0.0
2017-Jun-23 03:00N 37°49' W 122°19'0 0.0
2017-Jun-23 02:30N 37°49' W 122°19'0 0.0
2017-Jun-23 02:00N 37°49' W 122°19'0 0.0
2017-Jun-23 01:30N 37°49' W 122°19'0 0.0
2017-Jun-23 01:00N 37°49' W 122°19'0 0.0
2017-Jun-23 00:30N 37°49' W 122°19'0 0.0
2017-Jun-23 00:00N 37°49' W 122°19'1 1.8
2017-Jun-22 23:30N 37°49' W 122°20'0 0.4
2017-Jun-22 23:00N 37°49' W 122°19'1 1.8
2017-Jun-22 22:30N 37°49' W 122°19'0 0.0
2017-Jun-22 22:00N 37°49' W 122°19'0 0.0
2017-Jun-22 21:30N 37°49' W 122°19'0 0.0
2017-Jun-22 21:00N 37°49' W 122°19'0 0.0
2017-Jun-22 20:30N 37°49' W 122°19'0 0.0
2017-Jun-22 20:00N 37°49' W 122°19'0 0.0
2017-Jun-22 19:30N 37°49' W 122°19'0 0.0
2017-Jun-22 19:00N 37°49' W 122°19'0 0.0
2017-Jun-22 18:30N 37°49' W 122°19'0 0.0
2017-Jun-22 18:00N 37°49' W 122°19'0 0.0
2017-Jun-22 17:30N 37°49' W 122°19'0 0.0
2017-Jun-22 17:00N 37°49' W 122°19'0 0.0
2017-Jun-22 16:30N 37°49' W 122°19'0 0.0
2017-Jun-22 16:00N 37°49' W 122°19'0 0.0
2017-Jun-22 15:30N 37°49' W 122°19'0 0.0
2017-Jun-22 15:00N 37°49' W 122°19'0 0.0
2017-Jun-22 14:30N 37°49' W 122°19'1 1.4
2017-Jun-22 13:30N 37°49' W 122°20'2 3.6
2017-Jun-22 13:00N 37°48' W 122°23'3 6.4
2017-Jun-22 12:30N 37°49' W 122°19'0 0.0
2017-Jun-22 12:01N 37°49' W 122°19'0 0.0
2017-Jun-22 11:30N 37°49' W 122°19'0 0.0
2017-Jun-22 11:00N 37°49' W 122°19'0 0.0
2017-Jun-22 10:30N 37°49' W 122°19'0 0.0
2017-Jun-22 10:01N 37°49' W 122°19'0 0.0
2017-Jun-22 09:30N 37°49' W 122°19'0 0.0
2017-Jun-22 09:00N 37°49' W 122°19'0 0.0
2017-Jun-22 08:30N 37°49' W 122°19'0 0.0
2017-Jun-22 08:01N 37°49' W 122°19'0 0.0
2017-Jun-22 07:30N 37°49' W 122°19'0 0.0
2017-Jun-22 07:00N 37°49' W 122°19'0 0.0
2017-Jun-22 06:30N 37°49' W 122°19'0 0.0
2017-Jun-22 06:00N 37°49' W 122°19'0 0.0
2017-Jun-22 05:31N 37°49' W 122°19'2 3.2
2017-Jun-22 05:00N 37°48' W 122°19'0 0.2
2017-Jun-22 04:30N 37°48' W 122°19'0 0.1
2017-Jun-22 04:00N 37°48' W 122°19'0 0.1
2017-Jun-22 03:30N 37°48' W 122°19'0 0.0
2017-Jun-22 03:00N 37°48' W 122°19'3 6.8
2017-Jun-22 02:30N 37°50' W 122°22'5 9.7
2017-Jun-22 02:00N 37°54' W 122°25'1 1.4
2017-Jun-22 01:18N 37°55' W 122°25'0 0.3
2017-Jun-22 01:00N 37°55' W 122°25'0 0.1
2017-Jun-22 00:30N 37°55' W 122°25'1 2.8
2017-Jun-22 00:00N 37°54' W 122°23'0 0.0
2017-Jun-21 23:30N 37°54' W 122°23'0 0.0
2017-Jun-21 23:00N 37°54' W 122°23'0 0.0
2017-Jun-21 22:30N 37°54' W 122°23'0 0.0
2017-Jun-21 22:00N 37°54' W 122°23'0 0.0
2017-Jun-21 21:30N 37°54' W 122°23'1 1.8
2017-Jun-21 20:41N 37°55' W 122°25'0 2.7
2017-Jun-21 20:30N 37°55' W 122°25'1 1.1
2017-Jun-21 20:00N 37°55' W 122°26'3 6.1
2017-Jun-21 19:30N 37°52' W 122°24'5 9.2
2017-Jun-21 19:00N 37°49' W 122°20'1 2.3
2017-Jun-21 18:30N 37°49' W 122°19'0 0.0
2017-Jun-21 18:00N 37°49' W 122°19'0 0.0
2017-Jun-21 17:30N 37°49' W 122°19'0 0.0
2017-Jun-21 17:00N 37°49' W 122°19'0 0.0
2017-Jun-21 16:30N 37°49' W 122°19'0 0.0
2017-Jun-21 16:00N 37°49' W 122°19'0 0.0
2017-Jun-21 15:30N 37°49' W 122°19'0 0.0
2017-Jun-21 15:00N 37°49' W 122°19'0 0.0
2017-Jun-21 14:30N 37°49' W 122°19'0 0.0
2017-Jun-21 13:30N 37°49' W 122°19'2 3.1
2017-Jun-21 13:00N 37°48' W 122°19'0 0.3
2017-Jun-21 12:31N 37°48' W 122°19'1 2.4
2017-Jun-21 12:01N 37°48' W 122°18'3 5.7
2017-Jun-21 11:30N 37°48' W 122°21'1 2.6
2017-Jun-21 11:00N 37°49' W 122°20'1 1.7
2017-Jun-21 10:30N 37°49' W 122°19'0 0.0
2017-Jun-21 10:00N 37°49' W 122°19'0 0.0
2017-Jun-21 09:30N 37°49' W 122°19'0 0.0
2017-Jun-21 09:00N 37°49' W 122°19'0 0.0
2017-Jun-21 08:30N 37°49' W 122°19'0 0.0
2017-Jun-21 08:00N 37°49' W 122°19'0 0.0
2017-Jun-21 07:30N 37°49' W 122°19'0 0.0
2017-Jun-21 07:01N 37°49' W 122°19'0 0.0
2017-Jun-21 06:30N 37°49' W 122°19'0 0.0
2017-Jun-21 06:00N 37°49' W 122°19'0 0.0
2017-Jun-21 05:30N 37°49' W 122°19'0 0.0
2017-Jun-21 05:00N 37°49' W 122°19'0 0.0
2017-Jun-21 04:31N 37°49' W 122°19'0 0.0
2017-Jun-21 04:00N 37°49' W 122°19'0 0.0
2017-Jun-21 03:30N 37°49' W 122°19'0 0.0
2017-Jun-21 03:00N 37°49' W 122°19'0 0.0
2017-Jun-21 02:30N 37°49' W 122°19'0 0.0
2017-Jun-21 02:00N 37°49' W 122°19'0 0.0
2017-Jun-21 01:30N 37°49' W 122°19'0 0.0
2017-Jun-21 01:00N 37°49' W 122°19'0 0.0
2017-Jun-21 00:30N 37°49' W 122°19'1 1.1
2017-Jun-21 00:00N 37°49' W 122°19'1 1.1
2017-Jun-20 23:30N 37°49' W 122°20'2 3.0
2017-Jun-20 23:00N 37°48' W 122°22'3 5.0
2017-Jun-20 22:30N 37°49' W 122°19'0 0.0
2017-Jun-20 22:00N 37°49' W 122°19'0 0.0
2017-Jun-20 21:30N 37°49' W 122°19'3 5.3
2017-Jun-20 21:01N 37°48' W 122°22'2 4.2
2017-Jun-20 20:30N 37°50' W 122°24'3 6.0
2017-Jun-20 20:00N 37°52' W 122°25'610.7
2017-Jun-20 19:28N 37°58' W 122°27'8 9.8
2017-Jun-20 18:42N 38°03' W 122°19'3 0.6
2017-Jun-20 14:32N 38°02' W 122°22'610.5
2017-Jun-20 14:00N 37°57' W 122°26'510.9
2017-Jun-20 13:30N 37°52' W 122°24'4 8.4
2017-Jun-20 13:00N 37°49' W 122°20'1 2.9
2017-Jun-20 12:30N 37°49' W 122°19'0 0.0
2017-Jun-20 12:00N 37°49' W 122°19'0 0.0
2017-Jun-20 11:30N 37°49' W 122°19'0 0.0
2017-Jun-20 11:00N 37°49' W 122°19'0 0.0
2017-Jun-20 10:30N 37°49' W 122°19'0 0.0
2017-Jun-20 10:00N 37°49' W 122°19'0 0.0
2017-Jun-20 09:30N 37°49' W 122°19'0 0.0
2017-Jun-20 09:00N 37°49' W 122°19'0 0.0
2017-Jun-20 08:30N 37°49' W 122°19'0 0.0
2017-Jun-20 08:00N 37°49' W 122°19'0 0.0
2017-Jun-20 07:30N 37°49' W 122°19'0 0.0
2017-Jun-20 07:00N 37°49' W 122°19'0 0.0
2017-Jun-20 06:30N 37°49' W 122°19'0 0.0
2017-Jun-20 06:00N 37°49' W 122°19'0 0.0
2017-Jun-20 05:30N 37°49' W 122°19'0 0.0
2017-Jun-20 05:00N 37°49' W 122°19'0 0.0
2017-Jun-20 04:30N 37°49' W 122°19'0 0.0
2017-Jun-20 04:00N 37°49' W 122°19'0 0.0
2017-Jun-20 03:30N 37°49' W 122°19'0 0.0
2017-Jun-20 03:00N 37°49' W 122°19'0 0.0
2017-Jun-20 02:30N 37°49' W 122°19'0 0.0
2017-Jun-20 02:00N 37°49' W 122°19'0 0.0
2017-Jun-20 01:30N 37°49' W 122°19'0 0.0
2017-Jun-20 01:00N 37°49' W 122°19'3 6.2
2017-Jun-20 00:31N 37°48' W 122°22'3 6.7
2017-Jun-20 00:01N 37°48' W 122°18'0 0.9
2017-Jun-19 23:30N 37°48' W 122°18'0 0.0
2017-Jun-19 23:01N 37°48' W 122°18'2 3.6
2017-Jun-19 22:30N 37°49' W 122°19'0 0.5
2017-Jun-19 22:00N 37°49' W 122°19'0 0.0
2017-Jun-19 21:30N 37°49' W 122°19'0 0.0
2017-Jun-19 21:00N 37°49' W 122°19'0 0.0
2017-Jun-19 20:30N 37°49' W 122°19'0 0.0
2017-Jun-19 20:00N 37°49' W 122°19'0 0.0
2017-Jun-19 19:30N 37°49' W 122°19'0 0.0
2017-Jun-19 19:00N 37°49' W 122°19'0 0.0
2017-Jun-19 18:30N 37°49' W 122°19'0 0.0
2017-Jun-19 18:00N 37°49' W 122°19'0 0.0
2017-Jun-19 17:30N 37°49' W 122°19'0 0.0
2017-Jun-19 17:00N 37°49' W 122°19'0 0.0
2017-Jun-19 16:30N 37°49' W 122°19'2 3.3
2017-Jun-19 16:01N 37°48' W 122°20'  

Dump ship's entire track history